Wan Hai 508 — 9VJJ6 — position and weather

sailwx.info

Track history (hours):
 
Tides and Currents Weather Stations Pressure Air Temp Water Temp Dewpoint Dewpoint Depression Visibility Wind Speed Wind Dir Waves Ship Positions

Wan Hai 508

Last reported at 2017-May-18 17:29 UTC. Time now 2017-May-29 22:43 UTC.
Position N 01°56' E 102°19'.
Warning: this ship's position is 11 days out of date.

Length 269 m; draft 10.4 m.

Type: Cargo ship. MMSI: 565567000.

Date/timePositionNaut miles runAvg speedWind from/ knotsBaromVisibWave heightAir tempDewpointWater temp
2017-May-18 17:29N 01°56' E 102°19'918.9
2017-May-18 17:00N 01°52' E 102°27'1019.0
2017-May-18 16:29N 01°48' E 102°36'919.0
2017-May-18 16:01N 01°44' E 102°44'5020.0
2017-May-18 13:31N 01°15' E 103°24'1020.8
2017-May-18 13:01N 01°12' E 103°35'1020.3
2017-May-18 12:31N 01°09' E 103°44'918.2
2017-May-18 12:00N 01°13' E 103°52'3 6.5
2017-May-18 11:30N 01°16' E 103°50'1 1.0
2017-May-18 10:56N 01°16' E 103°50'0 0.0
2017-May-18 10:26N 01°16' E 103°50'0 0.0
2017-May-18 09:59N 01°16' E 103°50'0 0.0
2017-May-18 09:17N 01°16' E 103°50'0 0.0
2017-May-18 08:56N 01°16' E 103°50'0 0.0
2017-May-18 08:29N 01°16' E 103°50'0 0.0
2017-May-18 07:59N 01°16' E 103°50'0 0.0
2017-May-18 07:29N 01°16' E 103°50'0 0.0
2017-May-18 06:44N 01°16' E 103°50'0 0.0
2017-May-18 06:29N 01°16' E 103°50'0 0.0
2017-May-18 05:47N 01°16' E 103°50'0 0.0
2017-May-18 05:20N 01°16' E 103°50'0 0.0
2017-May-18 04:59N 01°16' E 103°50'0 0.0
2017-May-18 04:14N 01°16' E 103°50'0 0.0
2017-May-18 03:59N 01°16' E 103°50'0 0.0
2017-May-18 03:20N 01°16' E 103°50'0 0.0
2017-May-18 02:59N 01°16' E 103°50'0 0.1
2017-May-18 02:08N 01°16' E 103°50'0 1.5
2017-May-18 02:00N 01°16' E 103°50'2 3.7
2017-May-18 01:31N 01°15' E 103°52'3 6.4
2017-May-18 01:00N 01°12' E 103°51'4 8.9
2017-May-18 00:30N 01°15' E 103°47'1 1.9
2017-May-17 23:59N 01°16' E 103°47'0 0.0
2017-May-17 23:25N 01°16' E 103°47'0 0.0
2017-May-17 22:56N 01°16' E 103°47'0 0.0
2017-May-17 22:28N 01°16' E 103°47'0 0.0
2017-May-17 21:56N 01°16' E 103°47'0 0.0
2017-May-17 21:28N 01°16' E 103°47'0 0.0
2017-May-17 20:59N 01°16' E 103°47'0 0.0
2017-May-17 20:29N 01°16' E 103°47'0 0.0
2017-May-17 19:56N 01°16' E 103°47'0 0.0
2017-May-17 19:29N 01°16' E 103°47'0 0.0
2017-May-17 18:58N 01°16' E 103°47'0 0.0
2017-May-17 18:26N 01°16' E 103°47'0 0.0
2017-May-17 17:41N 01°16' E 103°47'0 0.0
2017-May-17 17:23N 01°16' E 103°47'0 0.0
2017-May-17 16:59N 01°16' E 103°47'0 0.0
2017-May-17 16:29N 01°16' E 103°47'0 0.0
2017-May-17 15:58N 01°16' E 103°47'0 0.0
2017-May-17 15:28N 01°16' E 103°47'0 0.0
2017-May-17 14:58N 01°16' E 103°47'0 0.0
2017-May-17 13:58N 01°16' E 103°47'0 0.0
2017-May-17 13:28N 01°16' E 103°47'0 0.2
2017-May-17 12:56N 01°16' E 103°48'0 0.9
2017-May-17 12:30N 01°15' E 103°47'4 7.9
2017-May-17 12:00N 01°15' E 103°44'510.8
2017-May-17 11:30N 01°12' E 103°39'4 7.5
2017-May-17 11:00N 01°12' E 103°35'3 6.2
2017-May-17 10:30N 01°12' E 103°32'3 6.5
2017-May-17 09:59N 01°11' E 103°28'0 0.8
2017-May-17 09:30N 01°11' E 103°29'0 0.6
2017-May-17 09:00N 01°11' E 103°29'0 0.7
2017-May-17 08:30N 01°11' E 103°29'1 1.1
2017-May-17 08:00N 01°10' E 103°28'2 4.6
2017-May-17 07:30N 01°11' E 103°26'713.9
2017-May-17 06:58N 01°15' E 103°20'3819.9
2017-May-17 05:05N 01°37' E 102°50'2919.9
2017-May-17 03:36N 01°50' E 102°23'319.8
2017-May-17 03:28N 01°52' E 102°20'  
Track history (hours):
 
Tides and Currents Weather Stations Pressure Air Temp Water Temp Dewpoint Dewpoint Depression Visibility Wind Speed Wind Dir Waves Ship Positions

Wan Hai 508

Last reported at 2017-May-18 17:29 UTC. Time now 2017-May-29 22:43 UTC.
Position N 01°56' E 102°19'.
Warning: this ship's position is 11 days out of date.

Length 269 m; draft 10.4 m.

Type: Cargo ship. MMSI: 565567000.

Date/timePositionNaut miles runAvg speedWind from/ knotsBaromVisibWave heightAir tempDewpointWater temp
2017-May-18 17:29N 01°56' E 102°19'918.9
2017-May-18 17:00N 01°52' E 102°27'1019.0
2017-May-18 16:29N 01°48' E 102°36'919.0
2017-May-18 16:01N 01°44' E 102°44'5020.0
2017-May-18 13:31N 01°15' E 103°24'1020.8
2017-May-18 13:01N 01°12' E 103°35'1020.3
2017-May-18 12:31N 01°09' E 103°44'918.2
2017-May-18 12:00N 01°13' E 103°52'3 6.5
2017-May-18 11:30N 01°16' E 103°50'1 1.0
2017-May-18 10:56N 01°16' E 103°50'0 0.0
2017-May-18 10:26N 01°16' E 103°50'0 0.0
2017-May-18 09:59N 01°16' E 103°50'0 0.0
2017-May-18 09:17N 01°16' E 103°50'0 0.0
2017-May-18 08:56N 01°16' E 103°50'0 0.0
2017-May-18 08:29N 01°16' E 103°50'0 0.0
2017-May-18 07:59N 01°16' E 103°50'0 0.0
2017-May-18 07:29N 01°16' E 103°50'0 0.0
2017-May-18 06:44N 01°16' E 103°50'0 0.0
2017-May-18 06:29N 01°16' E 103°50'0 0.0
2017-May-18 05:47N 01°16' E 103°50'0 0.0
2017-May-18 05:20N 01°16' E 103°50'0 0.0
2017-May-18 04:59N 01°16' E 103°50'0 0.0
2017-May-18 04:14N 01°16' E 103°50'0 0.0
2017-May-18 03:59N 01°16' E 103°50'0 0.0
2017-May-18 03:20N 01°16' E 103°50'0 0.0
2017-May-18 02:59N 01°16' E 103°50'0 0.1
2017-May-18 02:08N 01°16' E 103°50'0 1.5
2017-May-18 02:00N 01°16' E 103°50'2 3.7
2017-May-18 01:31N 01°15' E 103°52'3 6.4
2017-May-18 01:00N 01°12' E 103°51'4 8.9
2017-May-18 00:30N 01°15' E 103°47'1 1.9
2017-May-17 23:59N 01°16' E 103°47'0 0.0
2017-May-17 23:25N 01°16' E 103°47'0 0.0
2017-May-17 22:56N 01°16' E 103°47'0 0.0
2017-May-17 22:28N 01°16' E 103°47'0 0.0
2017-May-17 21:56N 01°16' E 103°47'0 0.0
2017-May-17 21:28N 01°16' E 103°47'0 0.0
2017-May-17 20:59N 01°16' E 103°47'0 0.0
2017-May-17 20:29N 01°16' E 103°47'0 0.0
2017-May-17 19:56N 01°16' E 103°47'0 0.0
2017-May-17 19:29N 01°16' E 103°47'0 0.0
2017-May-17 18:58N 01°16' E 103°47'0 0.0
2017-May-17 18:26N 01°16' E 103°47'0 0.0
2017-May-17 17:41N 01°16' E 103°47'0 0.0
2017-May-17 17:23N 01°16' E 103°47'0 0.0
2017-May-17 16:59N 01°16' E 103°47'0 0.0
2017-May-17 16:29N 01°16' E 103°47'0 0.0
2017-May-17 15:58N 01°16' E 103°47'0 0.0
2017-May-17 15:28N 01°16' E 103°47'0 0.0
2017-May-17 14:58N 01°16' E 103°47'0 0.0
2017-May-17 13:58N 01°16' E 103°47'0 0.0
2017-May-17 13:28N 01°16' E 103°47'0 0.2
2017-May-17 12:56N 01°16' E 103°48'0 0.9
2017-May-17 12:30N 01°15' E 103°47'4 7.9
2017-May-17 12:00N 01°15' E 103°44'510.8
2017-May-17 11:30N 01°12' E 103°39'4 7.5
2017-May-17 11:00N 01°12' E 103°35'3 6.2
2017-May-17 10:30N 01°12' E 103°32'3 6.5
2017-May-17 09:59N 01°11' E 103°28'0 0.8
2017-May-17 09:30N 01°11' E 103°29'0 0.6
2017-May-17 09:00N 01°11' E 103°29'0 0.7
2017-May-17 08:30N 01°11' E 103°29'1 1.1
2017-May-17 08:00N 01°10' E 103°28'2 4.6
2017-May-17 07:30N 01°11' E 103°26'713.9
2017-May-17 06:58N 01°15' E 103°20'3819.9
2017-May-17 05:05N 01°37' E 102°50'2919.9
2017-May-17 03:36N 01°50' E 102°23'319.8
2017-May-17 03:28N 01°52' E 102°20'  

Dump ship's entire track history